Time;durP1;ratioP1;P1;durP2;ratioP2;P2;SDS_P1;SDS_P2;PMS_P1;PMS_P2;Temp;Humidity;BMP_temperature;BMP_pressure;BME280_temperature;BME280_humidity;BME280_pressure;Samples;Min_cycle;Max_cycle;Signal;HPM_P1;HPM_P2
2023/11/17 00:02:18;;;;;;;0.45;0.45;;;;;;;37.14;25.16;99695.19;7423215;19;20561;-79
2023/11/17 00:04:45;;;;;;;2.40;0.63;;;;;;;42.89;22.57;99686.03;7422957;19;20503;-79
2023/11/17 00:07:11;;;;;;;2.38;0.80;;;;;;;43.79;21.83;99676.94;7424624;19;20485;-79
2023/11/17 00:09:37;;;;;;;0.25;0.20;;;;;;;44.35;21.26;99679.69;7424294;19;20457;-79
2023/11/17 00:12:05;;;;;;;0.43;0.40;;;;;;;44.08;21.34;99675.78;7423409;19;20359;-79
2023/11/17 00:14:31;;;;;;;0.30;0.20;;;;;;;44.50;20.33;99669.56;7422376;19;20450;-79
2023/11/17 00:16:57;;;;;;;0.32;0.30;;;;;;;44.64;20.56;99677.75;7425683;19;20465;-79
2023/11/17 00:19:24;;;;;;;0.30;0.30;;;;;;;44.01;20.84;99667.63;7423796;19;20013;-79
2023/11/17 00:21:51;;;;;;;0.10;0.10;;;;;;;43.78;20.56;99666.66;7424703;19;20014;-79
2023/11/17 00:24:17;;;;;;;0.68;0.47;;;;;;;43.67;20.43;99662.13;7422155;19;20734;-79
2023/11/17 00:26:44;;;;;;;1.40;0.35;;;;;;;25.43;34.60;99703.41;7423288;19;20053;-78
2023/11/17 00:29:11;;;;;;;0.65;0.65;;;;;;;13.38;100.00;99735.56;7423457;19;20014;-79
2023/11/17 00:31:37;;;;;;;3.33;0.98;;;;;;;10.54;100.00;99732.34;7421835;19;22789;-79
2023/11/17 00:34:03;;;;;;;0.63;0.30;;;;;;;9.42;100.00;99749.19;7421350;19;20006;-79
2023/11/17 00:36:30;;;;;;;0.63;0.63;;;;;;;8.52;100.00;99739.84;7421842;19;20033;-79
2023/11/17 00:38:56;;;;;;;0.10;0.10;;;;;;;8.05;100.00;99743.06;7423148;19;20023;-79
2023/11/17 00:41:22;;;;;;;0.85;0.45;;;;;;;7.52;100.00;99750.03;7424167;19;20053;-79
2023/11/17 00:43:50;;;;;;;0.10;0.10;;;;;;;7.27;100.00;99745.50;7423663;19;20051;-79
2023/11/17 00:46:17;;;;;;;0.25;0.25;;;;;;;6.91;100.00;99748.06;7422609;19;20021;-79
2023/11/17 00:48:44;;;;;;;0.15;0.15;;;;;;;6.85;100.00;99744.34;7422474;19;20009;-79
2023/11/17 00:51:10;;;;;;;0.85;0.68;;;;;;;6.82;100.00;99750.81;7401031;19;20002;-79
2023/11/17 00:53:36;;;;;;;0.32;0.32;;;;;;;6.72;100.00;99735.38;7394154;19;20717;-79
2023/11/17 00:56:05;;;;;;;0.10;0.10;;;;;;;6.72;100.00;99752.75;7393428;19;20599;-80
2023/11/17 00:58:31;;;;;;;0.20;0.20;;;;;;;6.52;100.00;99743.25;7392206;19;20333;-79
2023/11/17 01:00:57;;;;;;;0.50;0.38;;;;;;;6.38;100.00;99755.59;7394742;19;20002;-80
2023/11/17 01:03:24;;;;;;;4.57;0.32;;;;;;;6.50;100.00;99745.66;7392771;19;20002;-79
2023/11/17 01:05:55;;;;;;;0.80;0.30;;;;;;;6.43;100.00;99754.25;7394241;19;20045;-80
2023/11/17 01:08:21;;;;;;;0.35;0.35;;;;;;;6.43;100.00;99751.47;7391767;19;20015;-79
2023/11/17 01:10:48;;;;;;;0.10;0.10;;;;;;;6.48;100.00;99754.41;7394551;19;20468;-79
2023/11/17 01:13:14;;;;;;;0.40;0.40;;;;;;;6.47;100.00;99746.59;7392467;19;20014;-79
2023/11/17 01:15:40;;;;;;;0.55;0.38;;;;;;;6.38;100.00;99754.81;7391406;19;20070;-79
2023/11/17 01:18:07;;;;;;;0.75;0.45;;;;;;;6.45;100.00;99749.81;7393825;19;20428;-80
2023/11/17 01:20:35;;;;;;;0.10;0.10;;;;;;;6.27;100.00;99759.94;7393485;19;20023;-79
2023/11/17 01:23:02;;;;;;;1.45;0.30;;;;;;;6.17;100.00;99766.63;7392251;19;20006;-80
2023/11/17 01:25:30;;;;;;;0.10;0.10;;;;;;;6.16;100.00;99757.56;7390490;19;20513;-79
2023/11/17 01:27:56;;;;;;;0.10;0.10;;;;;;;6.14;100.00;99757.22;7392508;19;20010;-79
2023/11/17 01:30:23;;;;;;;0.57;0.20;;;;;;;6.13;100.00;99761.19;7393061;19;20532;-80
2023/11/17 01:32:50;;;;;;;0.17;0.10;;;;;;;6.09;100.00;99766.84;7392407;19;20342;-79
2023/11/17 01:35:16;;;;;;;0.68;0.35;;;;;;;6.10;100.00;99768.41;7391329;19;20006;-80
2023/11/17 01:37:43;;;;;;;0.10;0.10;;;;;;;6.15;100.00;99780.88;7391546;19;20042;-79
2023/11/17 01:40:10;;;;;;;0.55;0.45;;;;;;;6.15;100.00;99769.81;7393588;19;20047;-79
2023/11/17 01:42:38;;;;;;;0.50;0.50;;;;;;;6.10;100.00;99760.13;7392923;19;20010;-80
2023/11/17 01:45:08;;;;;;;0.50;0.43;;;;;;;6.13;100.00;99766.72;7391488;19;20026;-79
2023/11/17 01:47:39;;;;;;;0.10;0.10;;;;;;;6.16;100.00;99765.06;7392300;19;20476;-80
2023/11/17 01:50:09;;;;;;;0.10;0.10;;;;;;;6.10;100.00;99762.09;7393236;19;20011;-79
2023/11/17 01:52:37;;;;;;;0.10;0.10;;;;;;;5.87;100.00;99751.44;7391121;19;20085;-79
2023/11/17 01:55:05;;;;;;;0.30;0.30;;;;;;;5.75;100.00;99757.75;7392375;19;20073;-80
2023/11/17 01:57:35;;;;;;;0.13;0.13;;;;;;;5.69;100.00;99765.84;7390851;19;20017;-79
2023/11/17 02:00:06;;;;;;;0.10;0.10;;;;;;;5.61;100.00;99767.25;7390393;19;20463;-80
2023/11/17 02:02:42;;;;;;;0.30;0.30;;;;;;;5.48;100.00;99760.97;7391206;19;20014;-79
2023/11/17 02:05:14;;;;;;;1.10;0.60;;;;;;;5.30;100.00;99763.53;7391351;19;20023;-80
2023/11/17 02:07:48;;;;;;;0.22;0.22;;;;;;;5.14;100.00;99753.38;7390558;19;20479;-80
2023/11/17 02:10:40;;;;;;;0.35;0.35;;;;;;;5.01;100.00;99755.34;7390453;19;20082;-80
2023/11/17 02:13:37;;;;;;;0.30;0.30;;;;;;;4.88;100.00;99756.53;7392689;19;20028;-80
2023/11/17 02:16:10;;;;;;;0.10;0.10;;;;;;;4.80;100.00;99760.72;7391373;19;20024;-80
2023/11/17 02:18:40;;;;;;;0.85;0.22;;;;;;;4.81;100.00;99754.00;7390214;19;20006;-80
2023/11/17 02:21:08;;;;;;;0.30;0.30;;;;;;;4.61;100.00;99763.22;7391629;19;20414;-80
2023/11/17 02:23:36;;;;;;;0.20;0.20;;;;;;;4.49;100.00;99763.97;7389147;19;20470;-80
2023/11/17 02:26:15;;;;;;;0.30;0.30;;;;;;;4.44;100.00;99777.53;7392321;19;20411;-79
2023/11/17 02:28:59;;;;;;;0.25;0.25;;;;;;;4.29;100.00;99768.06;7390511;19;20033;-80
2023/11/17 02:31:32;;;;;;;0.30;0.28;;;;;;;4.20;100.00;99779.72;7390042;19;20006;-80
2023/11/17 02:34:05;;;;;;;0.75;0.60;;;;;;;4.16;100.00;99783.78;7389524;19;20006;-80
2023/11/17 02:36:35;;;;;;;0.13;0.13;;;;;;;4.21;100.00;99761.97;7391015;19;20048;-80
2023/11/17 02:39:24;;;;;;;0.30;0.30;;;;;;;4.23;100.00;99770.59;7390807;19;20019;-79
2023/11/17 02:41:58;;;;;;;0.40;0.40;;;;;;;4.07;100.00;99770.59;7391478;19;20014;-80
2023/11/17 02:44:29;;;;;;;0.30;0.30;;;;;;;4.03;100.00;99769.19;7387516;19;20011;-80
2023/11/17 02:46:58;;;;;;;0.40;0.40;;;;;;;4.10;100.00;99768.97;7391682;19;20006;-80
2023/11/17 02:49:40;;;;;;;2.58;0.57;;;;;;;4.18;100.00;99771.09;7390638;19;20813;-79
2023/11/17 02:52:11;;;;;;;0.22;0.22;;;;;;;3.94;100.00;99775.31;7387950;19;20018;-79
2023/11/17 02:54:42;;;;;;;0.40;0.35;;;;;;;3.88;100.00;99774.25;7385636;19;20850;-79
2023/11/17 02:57:10;;;;;;;0.20;0.20;;;;;;;3.77;100.00;99784.75;7388509;19;20042;-79
2023/11/17 02:59:37;;;;;;;0.10;0.10;;;;;;;3.70;100.00;99790.47;7385853;19;20014;-79
2023/11/17 03:02:04;;;;;;;0.20;0.20;;;;;;;3.69;100.00;99789.69;7385450;19;20006;-79
2023/11/17 03:04:31;;;;;;;0.47;0.45;;;;;;;3.71;100.00;99794.75;7383484;19;20007;-79
2023/11/17 03:07:01;;;;;;;0.30;0.30;;;;;;;3.74;100.00;99789.19;7388202;19;20007;-79
2023/11/17 03:09:30;;;;;;;0.50;0.50;;;;;;;3.53;100.00;99797.19;7388611;19;20045;-78
2023/11/17 03:12:02;;;;;;;0.10;0.10;;;;;;;3.56;100.00;99791.56;7389564;19;20032;-79
2023/11/17 03:14:29;;;;;;;0.10;0.10;;;;;;;3.51;100.00;99788.56;7387671;19;20009;-78
2023/11/17 03:16:58;;;;;;;0.43;0.32;;;;;;;3.40;100.00;99793.56;7391418;19;20069;-78
2023/11/17 03:19:30;;;;;;;0.40;0.40;;;;;;;3.40;100.00;99793.56;7390630;19;20010;-79
2023/11/17 03:21:57;;;;;;;0.10;0.10;;;;;;;3.36;100.00;99798.34;7389606;19;20010;-79
2023/11/17 03:24:25;;;;;;;0.20;0.20;;;;;;;3.26;100.00;99793.84;7386768;19;20023;-79
2023/11/17 03:26:55;;;;;;;0.17;0.17;;;;;;;3.20;100.00;99807.38;7389224;19;20413;-78
2023/11/17 03:29:23;;;;;;;0.38;0.38;;;;;;;2.89;100.00;99809.59;7389829;19;20030;-79
2023/11/17 03:31:52;;;;;;;1.58;0.85;;;;;;;4.70;100.00;99790.16;7390443;19;20014;-79
2023/11/17 03:34:24;;;;;;;0.45;0.45;;;;;;;3.49;100.00;99801.97;7387107;19;20022;-79
2023/11/17 03:36:56;;;;;;;3.25;0.70;;;;;;;3.19;100.00;99813.28;7390209;19;20414;-79
2023/11/17 03:39:27;;;;;;;0.40;0.40;;;;;;;3.03;100.00;99800.28;7388165;19;20048;-78
2023/11/17 03:41:54;;;;;;;1.80;0.43;;;;;;;2.96;100.00;99809.44;7389197;19;20014;-78
2023/11/17 03:44:24;;;;;;;0.28;0.28;;;;;;;3.11;100.00;99820.91;7387305;19;20264;-79
2023/11/17 03:46:59;;;;;;;0.32;0.32;;;;;;;2.99;100.00;99803.09;7388606;19;20397;-79
2023/11/17 03:49:28;;;;;;;1.65;0.60;;;;;;;3.04;100.00;99794.34;7386853;19;20010;-79
2023/11/17 03:51:55;;;;;;;0.50;0.50;;;;;;;4.70;100.00;99792.91;7389702;19;20025;-78
2023/11/17 03:54:22;;;;;;;0.25;0.25;;;;;;;4.43;100.00;99798.78;7387540;19;20022;-79
2023/11/17 03:56:49;;;;;;;0.20;0.20;;;;;;;3.30;100.00;99811.84;7389237;19;20069;-78
2023/11/17 03:59:16;;;;;;;0.20;0.20;;;;;;;2.91;100.00;99809.94;7387899;19;20011;-79
2023/11/17 04:01:46;;;;;;;0.50;0.50;;;;;;;2.81;100.00;99807.41;7386806;19;20420;-79
2023/11/17 04:04:15;;;;;;;1.75;0.32;;;;;;;2.71;100.00;99808.38;7389159;19;20367;-78
2023/11/17 04:06:49;;;;;;;0.47;0.47;;;;;;;2.68;100.00;99815.53;7387044;19;20456;-79
2023/11/17 04:09:20;;;;;;;0.20;0.20;;;;;;;2.67;100.00;99818.69;7389056;19;20022;-78
2023/11/17 04:11:51;;;;;;;0.20;0.20;;;;;;;2.60;100.00;99819.59;7387930;19;20087;-79
2023/11/17 04:14:22;;;;;;;0.68;0.68;;;;;;;2.55;100.00;99817.34;7387698;19;20097;-79
2023/11/17 04:16:49;;;;;;;0.30;0.30;;;;;;;2.67;100.00;99824.97;7387450;19;20349;-79
2023/11/17 04:19:19;;;;;;;0.20;0.20;;;;;;;2.47;100.00;99826.91;7389141;19;20014;-78
2023/11/17 04:21:46;;;;;;;0.30;0.30;;;;;;;2.53;100.00;99828.00;7388613;19;20010;-79
2023/11/17 04:24:13;;;;;;;0.50;0.50;;;;;;;2.64;100.00;99825.03;7386810;19;20002;-78
2023/11/17 04:26:40;;;;;;;0.20;0.20;;;;;;;2.61;100.00;99821.16;7392503;19;20345;-78
2023/11/17 04:29:09;;;;;;;0.22;0.22;;;;;;;2.61;100.00;99837.66;7396602;19;20003;-79
2023/11/17 04:31:36;;;;;;;1.10;0.45;;;;;;;2.50;100.00;99831.59;7395929;19;20032;-78
2023/11/17 04:34:02;;;;;;;0.10;0.10;;;;;;;2.54;100.00;99837.00;7397101;19;20023;-79
2023/11/17 04:36:34;;;;;;;0.40;0.40;;;;;;;2.47;100.00;99840.66;7395440;19;20339;-79
2023/11/17 04:39:01;;;;;;;0.30;0.30;;;;;;;2.36;100.00;99834.56;7394853;19;20010;-78
2023/11/17 04:41:27;;;;;;;0.35;0.28;;;;;;;2.36;100.00;99840.06;7393598;19;20042;-79
2023/11/17 04:43:53;;;;;;;0.95;0.60;;;;;;;2.51;100.00;99855.13;7394615;19;20090;-78
2023/11/17 04:46:19;;;;;;;0.50;0.50;;;;;;;2.51;100.00;99855.13;7390555;19;20021;-78
2023/11/17 04:48:46;;;;;;;0.28;0.28;;;;;;;2.45;100.00;99845.81;7391203;19;20508;-79
2023/11/17 04:51:12;;;;;;;0.28;0.28;;;;;;;2.51;100.00;99851.59;7391672;19;20033;-78
2023/11/17 04:53:38;;;;;;;0.10;0.10;;;;;;;2.52;100.00;99851.19;7390542;19;20038;-79
2023/11/17 04:56:05;;;;;;;0.75;0.75;;;;;;;3.61;100.00;99846.13;7390882;19;20070;-79
2023/11/17 04:58:31;;;;;;;0.10;0.10;;;;;;;3.32;100.00;99852.69;7388403;19;20014;-78
2023/11/17 05:00:57;;;;;;;0.20;0.20;;;;;;;2.68;100.00;99848.53;7392023;19;20014;-78
2023/11/17 05:03:23;;;;;;;0.30;0.30;;;;;;;2.48;100.00;99857.94;7392055;19;20322;-78
2023/11/17 05:05:49;;;;;;;0.28;0.28;;;;;;;2.46;100.00;99849.34;7394292;19;20010;-78
2023/11/17 05:08:16;;;;;;;1.45;1.10;;;;;;;2.46;100.00;99841.88;7393464;19;20022;-78
2023/11/17 05:10:43;;;;;;;0.20;0.20;;;;;;;2.32;100.00;99853.09;7394259;19;20006;-78
2023/11/17 05:13:11;;;;;;;4.15;0.63;;;;;;;2.41;100.00;99849.81;7393603;19;20023;-79
2023/11/17 05:15:39;;;;;;;0.35;0.35;;;;;;;2.29;100.00;99851.22;7393212;19;20025;-78
2023/11/17 05:18:05;;;;;;;0.17;0.17;;;;;;;2.35;100.00;99857.78;7393231;19;20014;-78
2023/11/17 05:20:31;;;;;;;0.47;0.47;;;;;;;2.32;100.00;99864.09;7392509;19;20010;-78
2023/11/17 05:23:00;;;;;;;0.20;0.20;;;;;;;2.35;100.00;99852.28;7393192;19;20095;-78
2023/11/17 05:25:27;;;;;;;0.20;0.20;;;;;;;3.55;100.00;99845.06;7392237;19;20485;-78
2023/11/17 05:27:54;;;;;;;0.30;0.30;;;;;;;4.13;100.00;99845.28;7394460;19;20371;-78
2023/11/17 05:30:21;;;;;;;0.30;0.15;;;;;;;3.24;100.00;99862.31;7393743;19;20103;-78
2023/11/17 05:32:48;;;;;;;0.20;0.20;;;;;;;2.99;100.00;99858.09;7394522;19;20019;-78
2023/11/17 05:35:15;;;;;;;0.10;0.10;;;;;;;4.01;100.00;99860.50;7393282;19;20082;-78
2023/11/17 05:37:41;;;;;;;0.20;0.20;;;;;;;4.53;100.00;99869.41;7392980;19;20362;-78
2023/11/17 05:40:07;;;;;;;1.05;0.57;;;;;;;2.91;100.00;99873.19;7391718;19;20347;-78
2023/11/17 05:42:34;;;;;;;0.30;0.30;;;;;;;2.32;100.00;99872.34;7393122;19;20014;-78
2023/11/17 05:45:01;;;;;;;0.40;0.40;;;;;;;2.14;100.00;99886.38;7393367;19;20023;-78
2023/11/17 05:47:27;;;;;;;0.20;0.20;;;;;;;2.07;100.00;99878.28;7393092;19;20015;-78
2023/11/17 05:49:55;;;;;;;0.30;0.30;;;;;;;2.02;100.00;99881.47;7393772;19;20018;-78
2023/11/17 05:52:21;;;;;;;0.30;0.30;;;;;;;2.00;100.00;99883.09;7391654;19;20021;-78
2023/11/17 05:54:47;;;;;;;0.10;0.10;;;;;;;2.00;100.00;99885.84;7393528;19;20375;-78
2023/11/17 05:57:15;;;;;;;0.10;0.10;;;;;;;2.20;100.00;99873.75;7393726;19;20014;-78
2023/11/17 05:59:47;;;;;;;0.47;0.47;;;;;;;1.97;100.00;99872.97;7392103;19;20010;-79
2023/11/17 06:02:16;;;;;;;0.90;0.47;;;;;;;1.93;100.00;99878.50;7392474;19;20010;-78
2023/11/17 06:04:43;;;;;;;0.20;0.20;;;;;;;1.91;100.00;99880.88;7391592;19;20010;-78
2023/11/17 06:07:09;;;;;;;0.10;0.10;;;;;;;1.87;100.00;99877.41;7393454;19;20010;-78
2023/11/17 06:09:37;;;;;;;0.20;0.20;;;;;;;1.80;100.00;99883.00;7393130;19;20006;-78
2023/11/17 06:12:04;;;;;;;0.20;0.20;;;;;;;1.71;100.00;99873.75;7391511;19;20571;-78
2023/11/17 06:14:31;;;;;;;0.20;0.20;;;;;;;1.69;100.00;99881.63;7390988;19;20446;-78
2023/11/17 06:16:57;;;;;;;0.40;0.40;;;;;;;1.70;100.00;99888.66;7393088;19;20044;-78
2023/11/17 06:19:24;;;;;;;0.73;0.43;;;;;;;1.69;100.00;99892.59;7390022;19;20112;-78
2023/11/17 06:21:50;;;;;;;0.40;0.40;;;;;;;1.72;100.00;99887.06;7393091;19;20017;-78
2023/11/17 06:24:16;;;;;;;0.55;0.40;;;;;;;1.70;100.00;99900.44;7389827;19;20010;-78
2023/11/17 06:26:45;;;;;;;19.52;1.25;;;;;;;1.76;100.00;99893.28;7391426;19;20073;-78
2023/11/17 06:29:12;;;;;;;0.13;0.13;;;;;;;1.63;100.00;99897.00;7391323;19;20010;-78
2023/11/17 06:31:40;;;;;;;0.20;0.20;;;;;;;1.57;100.00;99893.16;7391619;19;20009;-78
2023/11/17 06:34:06;;;;;;;0.22;0.22;;;;;;;1.65;100.00;99897.34;7391805;19;20015;-79
2023/11/17 06:36:37;;;;;;;0.20;0.20;;;;;;;1.54;100.00;99898.28;7389565;19;20027;-79
2023/11/17 06:39:13;;;;;;;0.20;0.20;;;;;;;1.55;100.00;99904.56;7391649;19;20469;-78
2023/11/17 06:41:44;;;;;;;0.10;0.10;;;;;;;1.52;100.00;99903.41;7392237;19;20100;-79
2023/11/17 06:44:10;;;;;;;0.13;0.13;;;;;;;1.52;100.00;99911.66;7390132;19;20018;-78
2023/11/17 06:46:39;;;;;;;8.25;0.90;;;;;;;1.52;100.00;99908.91;7389787;19;20014;-78
2023/11/17 06:49:05;;;;;;;0.28;0.28;;;;;;;1.46;100.00;99913.31;7386418;19;20031;-79
2023/11/17 06:51:32;;;;;;;0.20;0.20;;;;;;;1.33;100.00;99919.75;7389206;19;20002;-78
2023/11/17 06:53:58;;;;;;;0.68;0.63;;;;;;;1.30;100.00;99918.59;7391221;19;20006;-78
2023/11/17 06:56:24;;;;;;;0.30;0.30;;;;;;;1.34;100.00;99929.53;7389381;19;20393;-78
2023/11/17 06:58:51;;;;;;;0.60;0.60;;;;;;;1.31;100.00;99919.38;7390715;19;20107;-78
2023/11/17 07:01:18;;;;;;;0.50;0.50;;;;;;;1.28;100.00;99923.72;7390274;19;20025;-78
2023/11/17 07:03:45;;;;;;;0.57;0.57;;;;;;;1.31;100.00;99928.41;7388945;19;20011;-78
2023/11/17 07:06:16;;;;;;;0.20;0.20;;;;;;;1.34;100.00;99922.06;7392931;19;20010;-78
2023/11/17 07:08:43;;;;;;;0.40;0.40;;;;;;;1.38;100.00;99925.56;7389448;19;20033;-78
2023/11/17 07:11:11;;;;;;;0.20;0.20;;;;;;;1.30;100.00;99937.03;7390998;19;20393;-78
2023/11/17 07:13:40;;;;;;;0.20;0.20;;;;;;;1.28;100.00;99944.88;7390208;19;20033;-79
2023/11/17 07:16:12;;;;;;;0.60;0.60;;;;;;;2.53;100.00;99935.19;7388308;19;20022;-80
2023/11/17 07:18:38;;;;;;;1.65;1.38;;;;;;;1.39;100.00;99938.09;7390123;19;20023;-81
2023/11/17 07:21:04;;;;;;;0.85;0.50;;;;;;;1.28;100.00;99940.19;7389397;19;20015;-79
2023/11/17 07:23:31;;;;;;;0.40;0.28;;;;;;;1.24;100.00;99944.94;7388877;19;20482;-79
2023/11/17 07:25:57;;;;;;;0.80;0.80;;;;;;;1.21;100.00;99953.97;7389467;19;20031;-80
2023/11/17 07:28:24;;;;;;;0.45;0.45;;;;;;;1.19;100.00;99942.63;7388346;19;20041;-79
2023/11/17 07:30:50;;;;;;;0.55;0.55;;;;;;;1.17;100.00;99947.75;7390080;19;20008;-79
2023/11/17 07:33:18;;;;;;;0.20;0.20;;;;;;;1.14;100.00;99954.06;7390493;19;20002;-79
2023/11/17 07:35:45;;;;;;;0.38;0.38;;;;;;;1.15;100.00;99947.38;7389063;19;20019;-79
2023/11/17 07:38:11;;;;;;;0.10;0.10;;;;;;;1.10;100.00;99950.59;7388360;19;20081;-80
2023/11/17 07:40:39;;;;;;;0.90;0.65;;;;;;;1.07;100.00;99948.66;7388198;19;20022;-79
2023/11/17 07:43:05;;;;;;;0.35;0.35;;;;;;;1.04;100.00;99957.69;7393641;19;20025;-79
2023/11/17 07:45:32;;;;;;;0.75;0.75;;;;;;;1.02;100.00;99965.56;7390336;19;20014;-79
2023/11/17 07:47:58;;;;;;;0.47;0.35;;;;;;;1.04;100.00;99973.41;7393091;19;20006;-79
2023/11/17 07:50:24;;;;;;;1.17;1.08;;;;;;;2.34;100.00;99960.63;7388306;19;20367;-80
2023/11/17 07:52:50;;;;;;;0.47;0.47;;;;;;;1.42;100.00;99970.19;7386960;19;20074;-80
2023/11/17 07:55:17;;;;;;;0.85;0.85;;;;;;;1.34;100.00;99971.44;7386815;19;20018;-79
2023/11/17 07:57:43;;;;;;;0.30;0.30;;;;;;;1.30;100.00;99973.47;7384498;19;20358;-79
2023/11/17 08:00:19;;;;;;;2.28;1.23;;;;;;;1.20;100.00;99982.59;7388631;19;20070;-80
2023/11/17 08:02:46;;;;;;;3.83;0.52;;;;;;;1.32;100.00;99990.28;7394155;19;20071;-79
2023/11/17 08:05:12;;;;;;;0.20;0.20;;;;;;;2.08;100.00;99994.41;7394084;19;20354;-80
2023/11/17 08:07:38;;;;;;;0.22;0.22;;;;;;;3.57;100.00;99993.34;7394385;19;20023;-79
2023/11/17 08:10:06;;;;;;;0.38;0.38;;;;;;;3.44;100.00;99982.19;7396261;19;19999;-79
2023/11/17 08:12:33;;;;;;;0.45;0.45;;;;;;;3.88;100.00;99993.88;7395752;19;20014;-79
2023/11/17 08:15:00;;;;;;;0.25;0.25;;;;;;;4.44;100.00;99976.03;7394121;19;20031;-79
2023/11/17 08:17:28;;;;;;;1.55;1.02;;;;;;;4.61;100.00;99986.59;7394625;19;20006;-80
2023/11/17 08:19:54;;;;;;;0.20;0.20;;;;;;;4.76;100.00;99991.78;7396479;19;20072;-80
2023/11/17 08:22:20;;;;;;;1.75;0.47;;;;;;;5.06;100.00;99994.13;7396152;19;20039;-80
2023/11/17 08:24:47;;;;;;;0.20;0.20;;;;;;;5.38;100.00;99996.81;7393969;19;20026;-80
2023/11/17 08:27:15;;;;;;;0.30;0.30;;;;;;;3.79;100.00;99999.94;7395048;19;20021;-79
2023/11/17 08:29:42;;;;;;;0.40;0.40;;;;;;;2.90;100.00;99997.38;7395971;19;20019;-79
2023/11/17 08:32:08;;;;;;;0.20;0.20;;;;;;;2.80;100.00;100010.13;7394669;19;20007;-79
2023/11/17 08:34:35;;;;;;;6.32;0.47;;;;;;;2.77;100.00;100019.19;7393427;19;20015;-79
2023/11/17 08:37:04;;;;;;;0.50;0.50;;;;;;;2.64;100.00;100018.22;7396522;19;20007;-79
2023/11/17 08:39:30;;;;;;;0.50;0.50;;;;;;;2.92;100.00;100009.50;7394699;19;20003;-78
2023/11/17 08:41:56;;;;;;;0.25;0.22;;;;;;;2.97;100.00;100030.25;7395224;19;20028;-79
2023/11/17 08:44:23;;;;;;;0.55;0.55;;;;;;;3.00;100.00;100024.69;7392345;19;20091;-79
2023/11/17 08:46:49;;;;;;;0.20;0.20;;;;;;;2.99;100.00;100028.63;7395906;19;20010;-80
2023/11/17 08:49:18;;;;;;;0.40;0.40;;;;;;;3.02;100.00;100033.31;7393748;19;20010;-80
2023/11/17 08:51:46;;;;;;;2.50;1.20;;;;;;;3.02;100.00;100027.03;7391916;19;20006;-80
2023/11/17 08:54:14;;;;;;;1.40;0.73;;;;;;;3.18;100.00;100032.63;7392868;19;20021;-79
2023/11/17 08:56:41;;;;;;;5.60;0.93;;;;;;;3.70;100.00;100032.81;7395863;19;20018;-78
2023/11/17 08:59:07;;;;;;;0.70;0.70;;;;;;;3.07;100.00;100035.56;7394482;19;20015;-79
2023/11/17 09:01:33;;;;;;;0.10;0.10;;;;;;;2.92;100.00;100045.25;7393295;19;20007;-79
2023/11/17 09:04:00;;;;;;;0.50;0.50;;;;;;;2.84;100.00;100049.31;7393171;19;20078;-79
2023/11/17 09:06:26;;;;;;;0.45;0.32;;;;;;;3.01;100.00;100058.50;7394225;19;20034;-79
2023/11/17 09:08:52;;;;;;;0.32;0.32;;;;;;;4.84;100.00;100046.34;7392249;19;20016;-78
2023/11/17 09:11:18;;;;;;;0.45;0.45;;;;;;;6.32;100.00;100041.47;7392528;19;20009;-79
2023/11/17 09:13:44;;;;;;;0.20;0.20;;;;;;;6.61;100.00;100047.63;7394078;19;20032;-79
2023/11/17 09:16:11;;;;;;;0.30;0.30;;;;;;;6.18;100.00;100044.63;7393961;19;20078;-79
2023/11/17 09:18:37;;;;;;;0.40;0.40;;;;;;;6.36;100.00;100044.88;7392145;19;20048;-79
2023/11/17 09:21:05;;;;;;;0.45;0.45;;;;;;;6.33;100.00;100057.59;7394280;19;20017;-78
2023/11/17 09:23:35;;;;;;;0.55;0.55;;;;;;;6.08;100.00;100047.31;7392082;19;20011;-79
2023/11/17 09:26:02;;;;;;;0.10;0.10;;;;;;;6.49;100.00;100054.75;7392625;19;20017;-77
2023/11/17 09:28:29;;;;;;;0.20;0.20;;;;;;;6.95;100.00;100061.56;7391711;19;20524;-79
2023/11/17 09:30:58;;;;;;;1.73;1.17;;;;;;;7.07;100.00;100063.53;7394289;19;20022;-79
2023/11/17 09:33:25;;;;;;;2.10;0.95;;;;;;;7.09;100.00;100063.84;7392896;19;20043;-79
2023/11/17 09:35:51;;;;;;;2.60;1.40;;;;;;;7.08;100.00;100056.00;7392327;19;20006;-80
2023/11/17 09:38:19;;;;;;;0.20;0.20;;;;;;;7.21;100.00;100060.25;7393685;19;20006;-78
2023/11/17 09:40:53;;;;;;;1.85;0.38;;;;;;;4.36;100.00;100062.84;7391457;19;20014;-81
2023/11/17 09:43:21;;;;;;;0.20;0.10;;;;;;;4.17;100.00;100064.47;7392555;19;20017;-79
2023/11/17 09:45:51;;;;;;;0.60;0.57;;;;;;;3.70;100.00;100065.84;7393116;19;20394;-79
2023/11/17 09:48:18;;;;;;;0.57;0.57;;;;;;;3.94;100.00;100070.09;7391972;19;20007;-79
2023/11/17 09:50:51;;;;;;;0.63;0.63;;;;;;;4.19;100.00;100069.53;7391958;19;20463;-79
2023/11/17 09:53:23;;;;;;;0.32;0.32;;;;;;;4.05;100.00;100081.63;7390508;19;20011;-79
2023/11/17 09:55:52;;;;;;;0.82;0.82;;;;;;;3.72;100.00;100085.47;7390265;19;20369;-79
2023/11/17 09:58:20;;;;;;;0.40;0.40;;;;;;;3.95;100.00;100077.13;7390571;19;20419;-80
2023/11/17 10:00:48;;;;;;;0.60;0.60;;;;;;;4.72;100.00;100082.13;7393047;19;20022;-79
2023/11/17 10:03:14;;;;;;;1.85;0.52;;;;;;;5.25;100.00;100078.81;7391260;19;19999;-79
2023/11/17 10:05:42;;;;;;;0.30;0.30;;;;;;;4.43;100.00;100085.53;7392224;19;20011;-79
2023/11/17 10:08:11;;;;;;;1.67;0.52;;;;;;;4.24;100.00;100094.63;7391719;19;20045;-78
2023/11/17 10:10:39;;;;;;;1.00;1.00;;;;;;;4.22;100.00;100097.00;7392510;19;21084;-80
2023/11/17 10:13:12;;;;;;;0.38;0.38;;;;;;;4.32;100.00;100098.78;7392885;19;20019;-81
2023/11/17 10:15:49;;;;;;;0.43;0.43;;;;;;;4.31;100.00;100099.97;7390252;19;20046;-79
2023/11/17 10:18:20;;;;;;;1.63;1.52;;;;;;;4.28;100.00;100100.06;7391473;19;20003;-79
2023/11/17 10:20:47;;;;;;;0.93;0.57;;;;;;;4.34;100.00;100104.63;7390326;19;20365;-79
2023/11/17 10:23:14;;;;;;;2.08;0.32;;;;;;;4.41;100.00;100104.50;7390986;19;20028;-79
2023/11/17 10:25:43;;;;;;;0.30;0.30;;;;;;;4.40;100.00;100102.94;7390011;19;19999;-79
2023/11/17 10:28:10;;;;;;;0.30;0.30;;;;;;;4.45;100.00;100110.69;7391373;19;20010;-79
2023/11/17 10:30:41;;;;;;;0.40;0.40;;;;;;;4.30;100.00;100098.44;7390076;19;20618;-79
2023/11/17 10:33:13;;;;;;;1.00;1.00;;;;;;;4.52;100.00;100105.03;7391421;19;20078;-78
2023/11/17 10:35:51;;;;;;;0.30;0.30;;;;;;;4.46;100.00;100115.00;7391286;19;20006;-79
2023/11/17 10:38:19;;;;;;;1.52;0.82;;;;;;;4.63;100.00;100115.03;7390086;19;20020;-79
2023/11/17 10:40:45;;;;;;;0.20;0.20;;;;;;;4.22;100.00;100121.81;7390824;19;20010;-79
2023/11/17 10:43:15;;;;;;;0.20;0.20;;;;;;;4.47;100.00;100135.88;7392919;19;20017;-80
2023/11/17 10:45:43;;;;;;;0.28;0.28;;;;;;;4.66;100.00;100133.50;7388774;19;20014;-80
2023/11/17 10:48:13;;;;;;;0.95;0.55;;;;;;;4.88;100.00;100134.53;7390596;19;20006;-79
2023/11/17 10:50:42;;;;;;;0.25;0.25;;;;;;;5.02;100.00;100143.28;7391315;19;20010;-79
2023/11/17 10:53:19;;;;;;;3.13;0.75;;;;;;;4.94;100.00;100147.41;7391612;19;20010;-79
2023/11/17 10:55:47;;;;;;;0.57;0.43;;;;;;;5.21;100.00;100145.16;7391093;19;20034;-79
2023/11/17 10:58:15;;;;;;;0.10;0.10;;;;;;;5.34;100.00;100148.78;7391824;19;20382;-79
2023/11/17 11:00:46;;;;;;;0.17;0.17;;;;;;;5.34;100.00;100154.31;7391064;19;20362;-79
2023/11/17 11:03:15;;;;;;;0.10;0.10;;;;;;;5.62;100.00;100152.81;7389833;19;20007;-78
2023/11/17 11:05:43;;;;;;;1.58;1.00;;;;;;;5.70;100.00;100162.44;7387691;19;20013;-79
2023/11/17 11:08:22;;;;;;;0.20;0.20;;;;;;;5.78;100.00;100158.28;7392233;19;20192;-79
2023/11/17 11:10:55;;;;;;;0.35;0.35;;;;;;;5.85;100.00;100158.13;7389834;19;20035;-79
2023/11/17 11:13:29;;;;;;;0.95;0.47;;;;;;;6.05;100.00;100163.50;7389001;19;20021;-79
2023/11/17 11:16:07;;;;;;;0.10;0.10;;;;;;;6.11;100.00;100154.25;7390214;19;20015;-79
2023/11/17 11:18:37;;;;;;;0.65;0.65;;;;;;;6.10;100.00;100161.00;7390161;19;20030;-79
2023/11/17 11:21:06;;;;;;;0.10;0.10;;;;;;;6.36;100.00;100155.53;7392707;19;20007;-79
2023/11/17 11:23:34;;;;;;;7.47;1.00;;;;;;;6.46;100.00;100148.88;7389410;19;20286;-79
2023/11/17 11:26:05;;;;;;;0.90;0.45;;;;;;;6.59;100.00;100146.91;7393748;19;20006;-78
2023/11/17 11:28:32;;;;;;;0.35;0.35;;;;;;;6.64;100.00;100149.94;7396660;19;20066;-78
2023/11/17 11:31:00;;;;;;;0.65;0.52;;;;;;;6.69;100.00;100151.38;7394918;19;20464;-79
2023/11/17 11:33:30;;;;;;;0.40;0.40;;;;;;;6.86;100.00;100145.25;7387907;19;20011;-78
2023/11/17 11:35:58;;;;;;;0.10;0.10;;;;;;;6.75;100.00;100138.53;7390395;19;20361;-79
2023/11/17 11:38:26;;;;;;;0.22;0.22;;;;;;;6.79;100.00;100141.94;7390186;19;20019;-79